createdAt,value
2019-02-28T00:01:47.087Z,100193.91
2019-02-28T00:04:18.192Z,100184.84
2019-02-28T00:06:49.851Z,100182.18
2019-02-28T00:09:21.403Z,100175.29
2019-02-28T00:11:53.874Z,100169.56
2019-02-28T00:14:27.689Z,100167.41
2019-02-28T00:16:58.336Z,100173.52
2019-02-28T00:19:29.866Z,100168.68
2019-02-28T00:22:01.116Z,100154.34
2019-02-28T00:24:32.666Z,100156.09
2019-02-28T00:27:04.420Z,100149.21
2019-02-28T00:29:35.287Z,100150.04
2019-02-28T00:32:06.242Z,100144.38
2019-02-28T00:34:39.207Z,100152.53
2019-02-28T00:37:11.033Z,100147.86
2019-02-28T00:39:42.797Z,100153.78
2019-02-28T00:42:17.416Z,100145.08
2019-02-28T00:44:47.131Z,100145.15
2019-02-28T00:47:17.894Z,100146.48
2019-02-28T00:49:48.903Z,100137.82
2019-02-28T00:52:20.763Z,100134.38
2019-02-28T00:54:52.213Z,100122.17
2019-02-28T00:57:24.699Z,100124.80
2019-02-28T00:59:56.032Z,100126.07
2019-02-28T01:02:27.507Z,100123.91
2019-02-28T01:05:01.389Z,100123.88
2019-02-28T01:07:31.717Z,100119.15
2019-02-28T01:10:04.553Z,100116.52
2019-02-28T01:12:36.356Z,100106.05
2019-02-28T01:15:14.058Z,100098.23
2019-02-28T01:17:45.707Z,100102.56
2019-02-28T01:20:16.948Z,100099.47
2019-02-28T01:22:48.505Z,100092.55
2019-02-28T01:25:19.956Z,100090.80
2019-02-28T01:27:52.398Z,100087.34
2019-02-28T01:30:24.191Z,100080.84
2019-02-28T01:32:55.738Z,100074.22
2019-02-28T01:35:27.807Z,100071.20
2019-02-28T01:37:58.513Z,100076.23
2019-02-28T01:40:29.786Z,100066.62
2019-02-28T01:43:00.339Z,100068.09
2019-02-28T01:45:31.253Z,100067.19
2019-02-28T01:48:02.899Z,100060.77
2019-02-28T01:50:33.664Z,100060.66
2019-02-28T01:53:05.088Z,100045.89
2019-02-28T01:55:36.234Z,100043.74
2019-02-28T01:58:07.676Z,100037.67
2019-02-28T02:00:38.820Z,100035.03
2019-02-28T02:03:10.179Z,100029.88
2019-02-28T02:05:41.527Z,100025.52
2019-02-28T02:08:13.172Z,100030.73
2019-02-28T02:10:43.796Z,100029.91
2019-02-28T02:13:15.492Z,100027.30
2019-02-28T02:15:50.834Z,100025.58
2019-02-28T02:18:19.393Z,100015.12
2019-02-28T02:20:50.829Z,100011.33
2019-02-28T02:23:21.492Z,100008.67
2019-02-28T02:25:52.402Z,99996.44
2019-02-28T02:28:26.926Z,99989.09
2019-02-28T02:30:56.870Z,99994.76
2019-02-28T02:33:28.909Z,99983.80
2019-02-28T02:36:00.463Z,99977.20
2019-02-28T02:38:31.195Z,99978.19
2019-02-28T02:41:04.824Z,99975.98
2019-02-28T02:43:35.317Z,99969.91
2019-02-28T02:46:06.093Z,99970.80
2019-02-28T02:48:38.469Z,99965.09
2019-02-28T02:51:11.292Z,99972.59
2019-02-28T02:53:43.474Z,99964.70
2019-02-28T02:56:14.923Z,99959.96
2019-02-28T02:58:45.547Z,99965.64
2019-02-28T03:01:16.895Z,99959.95
2019-02-28T03:03:48.041Z,99956.46
2019-02-28T03:06:18.805Z,99945.63
2019-02-28T03:08:49.817Z,99939.12
2019-02-28T03:11:24.720Z,99941.27
2019-02-28T03:13:54.353Z,99933.43
2019-02-28T03:16:25.803Z,99932.19
2019-02-28T03:18:58.417Z,99927.87
2019-02-28T03:21:30.650Z,99927.43
2019-02-28T03:24:01.311Z,99922.58
2019-02-28T03:26:32.330Z,99916.58
2019-02-28T03:29:07.495Z,99911.38
2019-02-28T03:31:37.202Z,99905.77
2019-02-28T03:34:12.973Z,99897.91
2019-02-28T03:36:42.523Z,99891.42
2019-02-28T03:39:14.172Z,99894.91
2019-02-28T03:41:44.944Z,99889.24
2019-02-28T03:44:21.343Z,99887.94
2019-02-28T03:46:48.832Z,99882.28
2019-02-28T03:49:20.282Z,99872.27
2019-02-28T03:51:51.990Z,99870.14
2019-02-28T03:54:23.291Z,99874.90
2019-02-28T03:56:54.731Z,99870.08
2019-02-28T03:59:26.388Z,99864.48
2019-02-28T04:01:57.971Z,99867.53
2019-02-28T04:04:29.094Z,99864.95
2019-02-28T04:07:00.541Z,99854.95
2019-02-28T04:09:32.290Z,99855.36
2019-02-28T04:12:07.290Z,99845.81
2019-02-28T04:14:35.500Z,99841.48
2019-02-28T04:17:06.265Z,99844.08
2019-02-28T04:19:37.271Z,99836.67
2019-02-28T04:22:11.981Z,99829.75
2019-02-28T04:24:46.335Z,99830.20
2019-02-28T04:27:15.316Z,99820.19
2019-02-28T04:29:46.886Z,99814.95
2019-02-28T04:32:18.627Z,99817.16
2019-02-28T04:34:49.941Z,99817.14
2019-02-28T04:37:21.518Z,99815.42
2019-02-28T04:39:53.510Z,99810.20
2019-02-28T04:42:25.768Z,99813.67
2019-02-28T04:44:57.204Z,99809.30
2019-02-28T04:47:27.993Z,99816.28
2019-02-28T04:49:59.076Z,99815.86
2019-02-28T04:52:30.046Z,99808.00
2019-02-28T04:55:02.896Z,99799.72
2019-02-28T04:57:34.142Z,99801.03
2019-02-28T05:00:06.709Z,99797.58
2019-02-28T05:02:38.189Z,99791.93
2019-02-28T05:05:12.668Z,99788.83
2019-02-28T05:07:44.055Z,99780.16
2019-02-28T05:10:15.715Z,99780.58
2019-02-28T05:12:47.452Z,99776.23
2019-02-28T05:15:19.205Z,99770.97
2019-02-28T05:17:50.075Z,99768.41
2019-02-28T05:20:21.316Z,99769.28
2019-02-28T05:22:53.050Z,99769.67
2019-02-28T05:25:23.605Z,99765.36
2019-02-28T05:27:54.720Z,99762.23
2019-02-28T05:30:25.483Z,99748.77
2019-02-28T05:32:56.630Z,99739.68
2019-02-28T05:35:27.357Z,99735.36
2019-02-28T05:37:58.269Z,99738.36
2019-02-28T05:40:29.717Z,99727.86
2019-02-28T05:43:02.005Z,99722.30
2019-02-28T05:45:33.436Z,99723.16
2019-02-28T05:48:04.667Z,99717.00
2019-02-28T05:50:35.824Z,99707.03
2019-02-28T05:53:09.337Z,99697.39
2019-02-28T05:55:41.072Z,99696.80
2019-02-28T05:58:17.511Z,99698.52
2019-02-28T06:00:45.819Z,99696.67
2019-02-28T06:03:17.369Z,99692.88
2019-02-28T06:05:49.022Z,99688.52
2019-02-28T06:08:20.576Z,99688.56
2019-02-28T06:10:52.362Z,99680.14
2019-02-28T06:13:23.675Z,99673.20
2019-02-28T06:15:54.446Z,99674.81
2019-02-28T06:18:26.974Z,99678.44
2019-02-28T06:20:58.351Z,99673.96
2019-02-28T06:23:29.004Z,99674.20
2019-02-28T06:26:00.764Z,99672.27
2019-02-28T06:28:32.071Z,99664.81
2019-02-28T06:31:03.546Z,99662.70
2019-02-28T06:33:35.177Z,99655.55
2019-02-28T06:36:06.834Z,99661.13
2019-02-28T06:38:37.597Z,99656.38
2019-02-28T06:41:08.805Z,99659.37
2019-02-28T06:43:39.575Z,99657.90
2019-02-28T06:46:10.593Z,99647.55
2019-02-28T06:48:42.350Z,99650.56
2019-02-28T06:51:16.744Z,99641.97
2019-02-28T06:53:47.391Z,99637.52
2019-02-28T06:56:22.212Z,99633.83
2019-02-28T06:58:50.869Z,99625.45
2019-02-28T07:01:22.910Z,99619.75
2019-02-28T07:03:53.921Z,99613.92
2019-02-28T07:06:25.160Z,99609.66
2019-02-28T07:09:01.897Z,99589.77
2019-02-28T07:11:30.303Z,99590.73
2019-02-28T07:14:01.971Z,99585.53
2019-02-28T07:16:34.413Z,99574.59
2019-02-28T07:19:05.686Z,99558.86
2019-02-28T07:21:42.843Z,99558.53
2019-02-28T07:24:10.111Z,99554.58
2019-02-28T07:26:41.688Z,99540.28
2019-02-28T07:29:13.526Z,99540.52
2019-02-28T07:31:45.158Z,99536.75
2019-02-28T07:34:19.758Z,99536.40
2019-02-28T07:36:49.415Z,99531.86
2019-02-28T07:39:21.002Z,99525.29
2019-02-28T07:41:53.959Z,99512.75
2019-02-28T07:44:25.712Z,99507.73
2019-02-28T07:46:56.806Z,99509.19
2019-02-28T07:49:27.805Z,99502.17
2019-02-28T07:51:59.649Z,99497.06
2019-02-28T07:54:31.351Z,99496.98
2019-02-28T07:57:01.864Z,99489.47
2019-02-28T07:59:33.075Z,99482.33
2019-02-28T08:02:05.861Z,99474.98
2019-02-28T08:04:37.216Z,99470.98
2019-02-28T08:07:07.975Z,99456.48
2019-02-28T08:09:40.578Z,99463.05
2019-02-28T08:12:12.253Z,99445.89
2019-02-28T08:14:47.023Z,99435.63
2019-02-28T08:17:17.793Z,99432.32
2019-02-28T08:19:49.404Z,99421.21
2019-02-28T08:22:24.217Z,99418.45
2019-02-28T08:24:53.001Z,99426.22
2019-02-28T08:27:25.469Z,99411.97
2019-02-28T08:29:57.544Z,99401.94
2019-02-28T08:32:28.999Z,99385.17
2019-02-28T08:34:59.764Z,99388.34
2019-02-28T08:37:30.871Z,99385.20
2019-02-28T08:40:02.355Z,99384.58
2019-02-28T08:42:38.671Z,99374.76
2019-02-28T08:45:11.304Z,99369.66
2019-02-28T08:47:42.619Z,99366.52
2019-02-28T08:50:20.750Z,99359.50
2019-02-28T08:52:54.270Z,99362.64
2019-02-28T08:55:28.619Z,99358.41
2019-02-28T08:58:05.344Z,99353.37
2019-02-28T09:00:33.252Z,99342.44
2019-02-28T09:03:04.832Z,99333.28
2019-02-28T09:05:36.488Z,99335.72
2019-02-28T09:08:07.367Z,99331.66
2019-02-28T09:10:38.559Z,99322.19
2019-02-28T09:13:10.466Z,99311.62
2019-02-28T09:15:42.149Z,99305.44
2019-02-28T09:18:13.331Z,99300.75
2019-02-28T09:20:45.112Z,99289.16
2019-02-28T09:23:15.745Z,99287.36
2019-02-28T09:25:46.961Z,99285.71
2019-02-28T09:28:18.303Z,99276.56
2019-02-28T09:30:53.927Z,99258.22
2019-02-28T09:33:25.296Z,99253.34
2019-02-28T09:35:56.756Z,99249.55
2019-02-28T09:38:27.616Z,99227.34
2019-02-28T09:41:01.462Z,99220.67
2019-02-28T09:43:32.851Z,99213.33
2019-02-28T09:46:04.285Z,99210.19
2019-02-28T09:48:37.228Z,99207.44
2019-02-28T09:51:09.651Z,99190.37
2019-02-28T09:53:40.945Z,99186.20
2019-02-28T09:56:11.741Z,99193.32
2019-02-28T09:58:43.285Z,99186.59
2019-02-28T10:01:15.237Z,99173.73
2019-02-28T10:03:46.796Z,99166.19
2019-02-28T10:06:18.629Z,99168.58
2019-02-28T10:08:49.892Z,99163.08
2019-02-28T10:11:24.121Z,99155.57
2019-02-28T10:13:55.251Z,99146.67
2019-02-28T10:16:26.779Z,99132.95
2019-02-28T10:18:57.674Z,99127.89
2019-02-28T10:21:28.784Z,99119.11
2019-02-28T10:24:00.346Z,99110.28
2019-02-28T10:26:31.333Z,99105.92
2019-02-28T10:29:04.488Z,99100.97
2019-02-28T10:31:38.334Z,99090.77
2019-02-28T10:34:08.518Z,99089.91
2019-02-28T10:36:40.046Z,99091.97
2019-02-28T10:39:11.801Z,99075.70
2019-02-28T10:41:43.357Z,99075.70
2019-02-28T10:44:14.224Z,99070.86
2019-02-28T10:46:45.329Z,99077.76
2019-02-28T10:49:16.907Z,99073.08
2019-02-28T10:51:50.331Z,99073.58
2019-02-28T10:54:21.837Z,99061.36
2019-02-28T10:56:53.503Z,99055.08
2019-02-28T10:59:25.172Z,99055.31
2019-02-28T11:01:57.508Z,99049.45
2019-02-28T11:04:30.228Z,99044.57
2019-02-28T11:07:02.205Z,99036.97
2019-02-28T11:09:34.320Z,99023.70
2019-02-28T11:12:05.874Z,99003.98
2019-02-28T11:14:38.817Z,99004.95
2019-02-28T11:17:13.805Z,98991.20
2019-02-28T11:19:43.818Z,98998.53
2019-02-28T11:22:15.362Z,98999.53
2019-02-28T11:24:46.124Z,98997.09
2019-02-28T11:27:19.725Z,98987.48
2019-02-28T11:29:50.118Z,98972.82
2019-02-28T11:32:22.492Z,98956.91
2019-02-28T11:34:54.151Z,98962.44
2019-02-28T11:37:25.020Z,98946.19
2019-02-28T11:39:56.027Z,98959.84
2019-02-28T11:42:29.008Z,98955.34
2019-02-28T11:45:01.074Z,98949.69
2019-02-28T11:47:32.644Z,98934.77
2019-02-28T11:50:07.591Z,98925.62
2019-02-28T11:52:38.599Z,98903.95
2019-02-28T11:55:12.214Z,98901.07
2019-02-28T11:57:43.448Z,98902.45
2019-02-28T12:00:21.857Z,98900.11
2019-02-28T12:02:56.769Z,98899.36
2019-02-28T12:05:26.601Z,98890.82
2019-02-28T12:07:58.174Z,98880.23
2019-02-28T12:10:29.454Z,98864.08
2019-02-28T12:13:01.159Z,98870.13
2019-02-28T12:15:42.158Z,98852.05
2019-02-28T12:18:13.994Z,98855.47
2019-02-28T12:20:45.660Z,98849.44
2019-02-28T12:23:16.988Z,98838.40
2019-02-28T12:25:50.695Z,98829.80
2019-02-28T12:28:22.246Z,98827.03
2019-02-28T12:30:53.593Z,98828.48
2019-02-28T12:33:25.019Z,98826.72
2019-02-28T12:35:55.805Z,98822.95
2019-02-28T12:38:29.103Z,98826.25
2019-02-28T12:40:59.799Z,98825.45
2019-02-28T12:43:31.050Z,98819.02
2019-02-28T12:46:01.878Z,98803.96
2019-02-28T12:48:33.025Z,98813.66
2019-02-28T12:51:05.379Z,98810.81
2019-02-28T12:53:37.663Z,98792.39
2019-02-28T12:56:11.288Z,98783.69
2019-02-28T12:58:42.100Z,98790.66
2019-02-28T13:01:14.812Z,98781.28
2019-02-28T13:03:46.435Z,98773.23
2019-02-28T13:06:23.458Z,98767.34
2019-02-28T13:08:53.444Z,98760.59
2019-02-28T13:11:24.702Z,98755.37
2019-02-28T13:13:55.922Z,98745.23
2019-02-28T13:16:28.195Z,98737.41
2019-02-28T13:18:59.745Z,98735.78
2019-02-28T13:21:31.276Z,98735.78
2019-02-28T13:24:06.071Z,98734.98
2019-02-28T13:26:35.632Z,98725.84
2019-02-28T13:29:07.188Z,98708.42
2019-02-28T13:31:38.531Z,98715.17
2019-02-28T13:34:11.225Z,98717.22
2019-02-28T13:36:41.943Z,98725.26
2019-02-28T13:39:13.432Z,98711.97
2019-02-28T13:41:45.052Z,98702.78
2019-02-28T13:44:16.755Z,98703.22
2019-02-28T13:46:48.051Z,98684.03
2019-02-28T13:49:19.494Z,98684.17
2019-02-28T13:51:51.873Z,98678.27
2019-02-28T13:54:23.111Z,98671.13
2019-02-28T13:56:53.994Z,98670.95
2019-02-28T13:59:25.214Z,98665.83
2019-02-28T14:01:56.269Z,98656.74
2019-02-28T14:04:27.252Z,98652.80
2019-02-28T14:06:58.840Z,98650.41
2019-02-28T14:09:29.702Z,98641.67
2019-02-28T14:12:00.773Z,98630.19
2019-02-28T14:14:32.769Z,98625.55
2019-02-28T14:17:04.323Z,98620.52
2019-02-28T14:19:35.975Z,98608.91
2019-02-28T14:22:08.625Z,98613.80
2019-02-28T14:24:40.668Z,98613.78
2019-02-28T14:27:13.297Z,98612.03
2019-02-28T14:29:48.408Z,98601.71
2019-02-28T14:32:17.945Z,98586.08
2019-02-28T14:34:49.180Z,98583.87
2019-02-28T14:37:20.834Z,98572.54
2019-02-28T14:39:51.659Z,98569.00
2019-02-28T14:42:22.755Z,98566.00
2019-02-28T14:44:54.174Z,98559.84
2019-02-28T14:47:28.502Z,98557.84
2019-02-28T14:49:59.071Z,98551.84
2019-02-28T14:52:31.177Z,98558.36
2019-02-28T14:55:03.236Z,98560.11
2019-02-28T14:57:34.692Z,98553.10
2019-02-28T15:00:32.595Z,98550.12
2019-02-28T15:03:05.164Z,98545.20
2019-02-28T15:05:39.659Z,98542.14
2019-02-28T15:08:18.793Z,98536.70
2019-02-28T15:10:50.442Z,98548.55
2019-02-28T15:13:23.129Z,98542.03
2019-02-28T15:15:54.442Z,98538.37
2019-02-28T15:18:26.002Z,98540.50
2019-02-28T15:20:57.675Z,98534.72
2019-02-28T15:23:30.786Z,98527.69
2019-02-28T15:26:02.536Z,98524.59
2019-02-28T15:28:34.182Z,98521.17
2019-02-28T15:31:08.600Z,98508.12
2019-02-28T15:33:41.717Z,98513.81
2019-02-28T15:36:13.033Z,98515.18
2019-02-28T15:38:44.588Z,98505.13
2019-02-28T15:41:16.349Z,98507.66
2019-02-28T15:43:50.327Z,98509.44
2019-02-28T15:46:19.965Z,98492.94
2019-02-28T15:48:52.737Z,98485.90
2019-02-28T15:51:25.684Z,98488.73
2019-02-28T15:53:56.873Z,98484.27
2019-02-28T15:56:28.534Z,98481.64
2019-02-28T15:59:00.287Z,98478.74
2019-02-28T16:01:32.209Z,98479.33
2019-02-28T16:04:04.204Z,98480.70
2019-02-28T16:06:35.551Z,98475.06
2019-02-28T16:09:07.715Z,98472.23
2019-02-28T16:11:41.144Z,98471.75
2019-02-28T16:14:14.882Z,98472.03
2019-02-28T16:16:46.109Z,98468.96
2019-02-28T16:19:18.856Z,98459.55
2019-02-28T16:21:50.299Z,98461.52
2019-02-28T16:24:21.470Z,98453.19
2019-02-28T16:26:53.518Z,98457.57
2019-02-28T16:29:26.076Z,98449.83
2019-02-28T16:31:57.851Z,98443.64
2019-02-28T16:34:29.319Z,98431.64
2019-02-28T16:37:01.977Z,98425.13
2019-02-28T16:39:33.416Z,98434.70
2019-02-28T16:42:04.178Z,98423.55
2019-02-28T16:44:36.420Z,98417.24
2019-02-28T16:47:07.759Z,98414.47
2019-02-28T16:49:41.453Z,98406.98
2019-02-28T16:52:14.185Z,98402.52
2019-02-28T16:54:45.596Z,98404.03
2019-02-28T16:57:17.048Z,98407.83
2019-02-28T16:59:48.395Z,98405.78
2019-02-28T17:02:21.783Z,98393.84
2019-02-28T17:04:53.351Z,98399.81
2019-02-28T17:07:24.938Z,98388.97
2019-02-28T17:09:56.137Z,98395.95
2019-02-28T17:12:52.162Z,98383.86
2019-02-28T17:15:28.242Z,98363.73
2019-02-28T17:18:07.562Z,98373.95
2019-02-28T17:20:40.669Z,98373.09
2019-02-28T17:23:12.417Z,98368.16
2019-02-28T17:25:44.178Z,98352.67
2019-02-28T17:28:16.668Z,98361.66
2019-02-28T17:31:04.477Z,98351.66
2019-02-28T17:33:36.127Z,98349.55
2019-02-28T17:36:08.373Z,98346.67
2019-02-28T17:38:39.960Z,98340.95
2019-02-28T17:41:11.230Z,98334.73
2019-02-28T17:44:22.886Z,98327.69
2019-02-28T17:47:00.512Z,98316.79
2019-02-28T17:49:51.463Z,98326.73
2019-02-28T17:52:30.561Z,98317.52
2019-02-28T17:55:12.857Z,98310.80
2019-02-28T17:57:48.769Z,98310.58
2019-02-28T18:00:31.901Z,98310.52
2019-02-28T18:03:33.863Z,98307.48
2019-02-28T18:06:31.985Z,98305.36
2019-02-28T18:09:16.065Z,98298.54
2019-02-28T18:12:09.368Z,98303.47
2019-02-28T18:14:57.472Z,98304.62
2019-02-28T18:18:01.970Z,98291.69
2019-02-28T18:20:39.738Z,98287.77
2019-02-28T18:23:18.353Z,98281.39
2019-02-28T18:26:08.308Z,98287.65
2019-02-28T18:28:43.034Z,98289.16
2019-02-28T18:31:19.042Z,98278.05
2019-02-28T18:33:52.908Z,98273.19
2019-02-28T18:36:27.248Z,98276.44
2019-02-28T18:39:01.339Z,98273.97
2019-02-28T18:41:34.322Z,98274.88
2019-02-28T18:44:07.723Z,98274.26
2019-02-28T18:46:39.883Z,98281.05
2019-02-28T18:49:10.749Z,98281.13
2019-02-28T18:51:43.499Z,98269.05
2019-02-28T18:54:15.132Z,98260.99
2019-02-28T18:56:45.918Z,98261.47
2019-02-28T18:59:18.695Z,98246.23
2019-02-28T19:01:50.222Z,98249.05
2019-02-28T19:04:21.789Z,98233.68
2019-02-28T19:06:52.633Z,98236.78
2019-02-28T19:09:26.210Z,98231.83
2019-02-28T19:11:57.972Z,98231.77
2019-02-28T19:14:29.626Z,98218.84
2019-02-28T19:17:01.583Z,98222.18
2019-02-28T19:19:33.547Z,98217.22
2019-02-28T19:22:06.250Z,98213.27
2019-02-28T19:24:37.679Z,98211.19
2019-02-28T19:27:09.434Z,98203.36
2019-02-28T19:29:41.021Z,98200.97
2019-02-28T19:32:13.460Z,98195.25
2019-02-28T19:34:45.868Z,98188.38
2019-02-28T19:37:17.182Z,98193.21
2019-02-28T19:39:48.929Z,98191.45
2019-02-28T19:42:21.816Z,98182.15
2019-02-28T19:44:53.985Z,98178.34
2019-02-28T19:47:25.945Z,98170.17
2019-02-28T19:49:57.333Z,98170.01
2019-02-28T19:52:31.104Z,98169.37
2019-02-28T19:55:02.553Z,98163.30
2019-02-28T19:57:33.519Z,98172.17
2019-02-28T20:00:07.801Z,98166.06
2019-02-28T20:02:39.302Z,98164.37
2019-02-28T20:05:11.852Z,98166.77
2019-02-28T20:07:43.075Z,98164.28
2019-02-28T20:10:19.335Z,98152.14
2019-02-28T20:12:50.696Z,98155.48
2019-02-28T20:15:26.743Z,98148.19
2019-02-28T20:17:58.086Z,98140.77
2019-02-28T20:20:30.364Z,98144.62
2019-02-28T20:23:01.599Z,98142.93
2019-02-28T20:25:33.269Z,98139.45
2019-02-28T20:28:04.606Z,98144.41
2019-02-28T20:30:36.158Z,98142.10
2019-02-28T20:33:07.815Z,98143.80
2019-02-28T20:35:38.975Z,98137.06
2019-02-28T20:38:10.613Z,98140.30
2019-02-28T20:40:41.582Z,98142.05
2019-02-28T20:43:12.591Z,98145.56
2019-02-28T20:45:44.342Z,98137.28
2019-02-28T20:48:16.419Z,98135.45
2019-02-28T20:50:50.737Z,98147.20
2019-02-28T20:53:22.299Z,98131.05
2019-02-28T20:55:54.040Z,98126.67
2019-02-28T20:58:25.599Z,98136.33
2019-02-28T21:00:57.256Z,98135.45
2019-02-28T21:03:28.898Z,98135.66
2019-02-28T21:06:00.840Z,98137.68
2019-02-28T21:08:32.011Z,98142.84
2019-02-28T21:11:02.976Z,98151.39
2019-02-28T21:13:35.832Z,98145.80
2019-02-28T21:16:06.771Z,98141.63
2019-02-28T21:18:37.707Z,98143.94
2019-02-28T21:21:08.777Z,98146.11
2019-02-28T21:23:39.676Z,98154.47
2019-02-28T21:26:10.554Z,98151.06
2019-02-28T21:28:41.662Z,98155.87
2019-02-28T21:31:13.007Z,98160.30
2019-02-28T21:33:44.666Z,98154.27
2019-02-28T21:36:16.325Z,98153.78
2019-02-28T21:38:48.077Z,98158.51
2019-02-28T21:41:19.525Z,98166.66
2019-02-28T21:43:51.184Z,98169.65
2019-02-28T21:46:22.050Z,98171.84
2019-02-28T21:48:53.163Z,98167.49
2019-02-28T21:51:24.761Z,98163.55
2019-02-28T21:53:58.618Z,98165.02
2019-02-28T21:56:29.489Z,98166.95
2019-02-28T21:59:01.525Z,98171.03
2019-02-28T22:01:33.274Z,98178.70
2019-02-28T22:04:03.845Z,98178.35
2019-02-28T22:06:34.736Z,98174.75
2019-02-28T22:09:06.020Z,98174.75
2019-02-28T22:11:38.567Z,98174.05
2019-02-28T22:14:10.420Z,98176.67
2019-02-28T22:16:41.671Z,98187.04
2019-02-28T22:19:13.327Z,98192.30
2019-02-28T22:21:44.774Z,98203.42
2019-02-28T22:24:16.327Z,98211.74
2019-02-28T22:26:47.194Z,98208.89
2019-02-28T22:29:18.102Z,98214.55
2019-02-28T22:31:54.872Z,98217.30
2019-02-28T22:34:27.852Z,98225.19
2019-02-28T22:36:59.613Z,98220.58
2019-02-28T22:39:31.374Z,98223.56
2019-02-28T22:42:02.615Z,98223.91
2019-02-28T22:44:33.971Z,98221.72
2019-02-28T22:47:06.987Z,98220.91
2019-02-28T22:49:38.099Z,98219.88
2019-02-28T22:52:09.647Z,98223.98
2019-02-28T22:54:40.209Z,98229.67
2019-02-28T22:57:11.422Z,98224.89
2019-02-28T22:59:42.767Z,98219.84
2019-02-28T23:02:15.654Z,98225.10
2019-02-28T23:04:47.105Z,98231.92
2019-02-28T23:07:18.860Z,98232.37
2019-02-28T23:09:50.431Z,98229.14
2019-02-28T23:12:21.769Z,98224.57
2019-02-28T23:14:53.005Z,98221.79
2019-02-28T23:17:24.660Z,98228.36
2019-02-28T23:19:57.650Z,98222.48
2019-02-28T23:22:30.018Z,98224.84
2019-02-28T23:25:01.270Z,98234.56
2019-02-28T23:27:33.939Z,98228.77
2019-02-28T23:30:11.515Z,98234.55
2019-02-28T23:32:47.705Z,98230.82
2019-02-28T23:35:22.527Z,98236.80
2019-02-28T23:37:53.672Z,98226.28
2019-02-28T23:40:25.018Z,98223.87
2019-02-28T23:42:56.261Z,98225.44
2019-02-28T23:45:27.030Z,98226.44
2019-02-28T23:47:58.242Z,98228.18
2019-02-28T23:50:29.582Z,98229.18
2019-02-28T23:53:01.351Z,98223.02
2019-02-28T23:55:32.690Z,98224.14
2019-02-28T23:58:03.561Z,98214.50
